Time;durP1;ratioP1;P1;durP2;ratioP2;P2;SDS_P1;SDS_P2;PMS_P1;PMS_P2;Temp;Humidity;BMP_temperature;BMP_pressure;BME280_temperature;BME280_humidity;BME280_pressure;Samples;Min_cycle;Max_cycle;Signal;HPM_P1;HPM_P2
2021/12/21 00:00:29;;;;;;;20.67;7.68;;;;;;;-1.05;81.87;102743.06;5129019;27;20032;-71
2021/12/21 00:02:55;;;;;;;26.98;7.68;;;;;;;-1.06;81.79;102743.00;5132326;27;20036;-69
2021/12/21 00:05:25;;;;;;;16.65;7.28;;;;;;;-1.09;81.91;102741.16;5132670;27;20122;-70
2021/12/21 00:07:53;;;;;;;22.88;8.35;;;;;;;-1.12;82.06;102746.19;5136710;27;20130;-69
2021/12/21 00:10:24;;;;;;;27.02;7.70;;;;;;;-1.13;82.15;102742.72;5126830;27;20474;-77
2021/12/21 00:13:24;;;;;;;19.02;7.90;;;;;;;-1.15;82.20;102741.75;5135969;27;20040;-76
2021/12/21 00:24:10;;;;;;;17.20;7.90;;;;;;;-147.05;100.00;58721.66;5142294;27;20044;-75
2021/12/21 00:26:20;;;;;;;21.02;8.30;;;;;;;-147.05;100.00;58721.66;5123774;27;20143;-74
2021/12/21 00:29:00;;;;;;;17.48;6.93;;;;;;;-147.05;100.00;58721.66;5146918;27;20055;-71
2021/12/21 00:31:30;;;;;;;19.40;7.72;;;;;;;-147.05;100.00;58721.66;5135399;27;20043;-63
2021/12/21 00:33:57;;;;;;;21.02;8.55;;;;;;;-147.05;100.00;58721.66;5138027;27;20516;-69
2021/12/21 00:36:28;;;;;;;21.80;8.60;;;;;;;-147.05;100.00;58721.66;5132741;27;20496;-64
2021/12/21 00:38:56;;;;;;;19.70;8.60;;;;;;;-147.05;100.00;58721.66;5130779;27;20040;-68
2021/12/21 00:41:22;;;;;;;18.80;7.78;;;;;;;-147.05;100.00;58721.66;5130442;27;20040;-66
2021/12/21 00:43:48;;;;;;;21.90;9.20;;;;;;;-147.05;100.00;58721.66;5131138;27;20035;-71
2021/12/21 00:46:15;;;;;;;19.17;8.50;;;;;;;-147.05;100.00;58721.66;5132325;27;20039;-67
2021/12/21 00:48:48;;;;;;;17.77;8.25;;;;;;;-147.05;100.00;58721.66;5132769;27;20044;-71
2021/12/21 00:51:16;;;;;;;21.92;8.95;;;;;;;-147.05;100.00;58721.66;5130649;27;20035;-68
2021/12/21 00:53:44;;;;;;;20.23;7.78;;;;;;;-147.05;100.00;58721.66;5129203;27;20542;-66
2021/12/21 00:56:10;;;;;;;18.55;8.63;;;;;;;-147.05;100.00;58721.66;5129320;27;20098;-69
2021/12/21 00:58:35;;;;;;;24.75;8.65;;;;;;;-147.05;100.00;58721.66;5130535;27;20093;-70
2021/12/21 01:01:05;;;;;;;18.67;8.68;;;;;;;-147.05;100.00;58721.66;5128683;27;20040;-70
2021/12/21 01:03:35;;;;;;;23.00;8.57;;;;;;;-147.05;100.00;58721.66;5129028;27;20050;-66
2021/12/21 01:06:19;;;;;;;22.40;8.52;;;;;;;-147.05;100.00;58721.66;5131849;27;20725;-67
2021/12/21 01:09:01;;;;;;;25.83;8.70;;;;;;;-147.05;100.00;58721.66;5128146;27;20040;-71
2021/12/21 01:11:32;;;;;;;18.33;8.38;;;;;;;-147.05;100.00;58721.66;5125579;27;20261;-71
2021/12/21 01:17:03;;;;;;;19.42;8.32;;;;;;;-1.49;100.00;100612.66;5107900;27;20553;-71
2021/12/21 01:19:35;;;;;;;24.80;7.85;;;;;;;-147.05;100.00;58721.66;5131949;27;20043;-71
2021/12/21 01:24:53;;;;;;;19.63;7.70;;;;;;;-147.05;100.00;58721.66;5129846;27;20043;-65
2021/12/21 01:30:48;;;;;;;18.90;7.35;;;;;;;-147.05;100.00;58721.66;5129199;27;20105;-70
2021/12/21 01:35:32;;;;;;;20.30;8.00;;;;;;;-147.05;100.00;58721.66;5119519;27;20044;-68
2021/12/21 01:38:09;;;;;;;23.00;8.57;;;;;;;-147.05;100.00;58721.66;5138398;27;20047;-70
2021/12/21 01:40:50;;;;;;;19.92;8.52;;;;;;;-147.05;100.00;58721.66;5135379;27;20090;-67
2021/12/21 01:51:22;;;;;;;16.83;7.30;;;;;;;-147.05;100.00;58721.66;5131715;27;20035;-69
2021/12/21 01:53:48;;;;;;;18.85;8.30;;;;;;;-147.05;100.00;58721.66;5129626;27;20514;-68
2021/12/21 01:56:15;;;;;;;16.98;8.00;;;;;;;-147.05;100.00;58721.66;5131827;27;20062;-68
2021/12/21 01:58:42;;;;;;;15.93;7.32;;;;;;;-147.05;100.00;58721.66;5130856;27;20043;-72
2021/12/21 02:01:13;;;;;;;19.85;8.50;;;;;;;-147.05;100.00;58721.66;5127342;27;20032;-72
2021/12/21 02:03:46;;;;;;;16.77;8.23;;;;;;;-147.05;100.00;58721.66;5130222;27;20054;-71
2021/12/21 02:06:13;;;;;;;18.85;7.97;;;;;;;-147.05;100.00;58721.66;5128894;27;20040;-68
2021/12/21 02:08:39;;;;;;;19.85;7.65;;;;;;;-147.05;100.00;58721.66;5128246;27;20046;-70
2021/12/21 02:11:04;;;;;;;20.33;7.85;;;;;;;-147.05;100.00;58721.66;5128770;27;20032;-71
2021/12/21 02:13:36;;;;;;;15.63;7.30;;;;;;;-147.05;100.00;58721.66;5128930;27;20165;-69
2021/12/21 02:16:05;;;;;;;18.73;7.80;;;;;;;-147.05;100.00;58721.66;5129790;27;20055;-71
2021/12/21 02:19:21;;;;;;;20.33;7.22;;;;;;;-147.05;100.00;58721.66;5127356;27;20047;-66
2021/12/21 02:21:33;;;;;;;19.00;8.95;;;;;;;-147.05;100.00;58721.66;5115728;27;20512;-74
2021/12/21 02:24:05;;;;;;;18.30;7.78;;;;;;;-147.05;100.00;58721.66;5127527;27;20089;-73
2021/12/21 02:31:48;;;;;;;24.65;8.20;;;;;;;-147.05;100.00;58721.66;5131727;27;20039;-70
2021/12/21 02:34:15;;;;;;;20.13;8.25;;;;;;;-147.05;100.00;58721.66;5130012;27;20050;-73
2021/12/21 02:36:47;;;;;;;19.67;8.10;;;;;;;-147.05;100.00;58721.66;5129333;27;20505;-68
2021/12/21 02:39:15;;;;;;;26.30;8.50;;;;;;;-147.05;100.00;58721.66;5113671;27;20039;-72
2021/12/21 02:41:42;;;;;;;21.23;7.95;;;;;;;-147.05;100.00;58721.66;5134242;27;20185;-70
2021/12/21 02:44:10;;;;;;;16.88;7.38;;;;;;;-147.05;100.00;58721.66;5132021;27;20035;-70
2021/12/21 02:46:39;;;;;;;17.63;7.60;;;;;;;-147.05;100.00;58721.66;5131676;27;20134;-71
2021/12/21 02:49:09;;;;;;;16.10;6.90;;;;;;;-147.05;100.00;58721.66;5116332;27;20078;-70
2021/12/21 02:51:42;;;;;;;17.25;7.57;;;;;;;-147.05;100.00;58721.66;5129173;27;20040;-70
2021/12/21 02:54:10;;;;;;;17.13;7.63;;;;;;;-147.05;100.00;58721.66;5139888;27;20038;-71
2021/12/21 02:56:36;;;;;;;18.67;7.70;;;;;;;-147.05;100.00;58721.66;5138936;27;20068;-71
2021/12/21 02:59:03;;;;;;;17.85;7.15;;;;;;;-147.05;100.00;58721.66;5136761;27;20050;-72
2021/12/21 03:01:29;;;;;;;17.90;6.88;;;;;;;-147.05;100.00;58721.66;5136040;27;20043;-74
2021/12/21 03:03:55;;;;;;;15.85;6.47;;;;;;;21.82;100.00;58721.66;5133172;27;20079;-73
2021/12/21 03:07:50;;;;;;;21.52;7.43;;;;;;;-147.05;100.00;58721.66;5126912;27;20094;-70
2021/12/21 03:12:32;;;;;;;21.17;7.88;;;;;;;-147.05;100.00;58721.66;5134816;27;20447;-68
2021/12/21 03:14:57;;;;;;;20.95;7.85;;;;;;;-147.05;100.00;58721.66;5115821;27;22116;-71
2021/12/21 03:17:23;;;;;;;22.02;7.55;;;;;;;-147.05;100.00;58721.66;5139482;27;20126;-70
2021/12/21 03:19:49;;;;;;;24.00;7.80;;;;;;;-147.05;100.00;58721.66;5134533;27;20489;-71
2021/12/21 03:22:15;;;;;;;17.70;7.10;;;;;;;-147.05;100.00;58721.66;5137473;27;31018;-69
2021/12/21 03:24:44;;;;;;;18.48;8.02;;;;;;;-147.05;100.00;58721.66;5135228;27;20031;-71
2021/12/21 03:27:10;;;;;;;15.35;7.97;;;;;;;-147.05;100.00;58721.66;5144249;27;20039;-68
2021/12/21 03:29:37;;;;;;;14.82;7.80;;;;;;;-147.05;100.00;58721.66;5125321;27;20563;-75
2021/12/21 03:32:03;;;;;;;16.23;7.45;;;;;;;-147.05;100.00;58721.66;5139772;27;20044;-74
2021/12/21 03:34:29;;;;;;;19.70;7.55;;;;;;;-147.05;100.00;58721.66;5137437;27;20055;-73
2021/12/21 03:36:55;;;;;;;17.65;7.55;;;;;;;-147.05;100.00;58721.66;5138319;27;20047;-71
2021/12/21 03:39:22;;;;;;;19.75;8.45;;;;;;;-147.05;100.00;58721.66;5143978;27;20546;-70
2021/12/21 03:41:57;;;;;;;15.88;7.35;;;;;;;-147.05;100.00;58721.66;5133929;27;20039;-72
2021/12/21 03:44:25;;;;;;;19.73;7.78;;;;;;;-147.05;100.00;58721.66;5137356;27;20047;-73
2021/12/21 03:46:53;;;;;;;16.00;7.38;;;;;;;-147.05;100.00;58721.66;5117161;27;20096;-70
2021/12/21 03:51:57;;;;;;;17.88;6.97;;;;;;;-147.05;100.00;58721.66;5136019;27;20039;-72
2021/12/21 03:54:23;;;;;;;18.33;8.25;;;;;;;-147.05;100.00;58721.66;5137706;27;20088;-71
2021/12/21 03:56:51;;;;;;;17.50;8.20;;;;;;;-147.05;100.00;58721.66;5137263;27;20038;-71
2021/12/21 03:59:18;;;;;;;16.83;7.78;;;;;;;-147.05;100.00;58721.66;5136775;27;20066;-70
2021/12/21 04:01:47;;;;;;;17.88;8.27;;;;;;;-147.05;100.00;58721.66;5118366;27;20042;-71
2021/12/21 04:04:13;;;;;;;16.50;8.50;;;;;;;-147.05;100.00;58721.66;5134980;27;20461;-68
2021/12/21 04:06:39;;;;;;;17.98;8.07;;;;;;;-147.05;100.00;58721.66;5137710;27;20118;-70
2021/12/21 04:09:07;;;;;;;18.50;8.27;;;;;;;-147.05;100.00;58721.66;5133056;27;20085;-69
2021/12/21 04:11:33;;;;;;;20.95;8.02;;;;;;;-147.05;100.00;58721.66;5129640;27;20122;-68
2021/12/21 04:14:00;;;;;;;25.08;8.32;;;;;;;-147.05;100.00;58721.66;5131603;27;20036;-70
2021/12/21 04:16:27;;;;;;;18.48;8.88;;;;;;;-147.05;100.00;58721.66;5114402;27;20508;-69
2021/12/21 04:18:53;;;;;;;23.48;8.43;;;;;;;-147.05;100.00;58721.66;5130170;27;20046;-71
2021/12/21 04:21:19;;;;;;;19.73;7.88;;;;;;;-147.05;100.00;58721.66;5112824;27;20048;-70
2021/12/21 04:23:44;;;;;;;16.50;7.10;;;;;;;-147.05;100.00;58721.66;5129484;27;20032;-69
2021/12/21 04:26:13;;;;;;;17.65;8.38;;;;;;;-147.05;100.00;58721.66;5127304;27;43158;-69
2021/12/21 04:28:39;;;;;;;15.95;7.82;;;;;;;-147.05;100.00;58721.66;5128070;27;20044;-72
2021/12/21 04:31:06;;;;;;;19.02;7.80;;;;;;;-147.05;100.00;58721.66;5131401;27;20040;-65
2021/12/21 04:33:33;;;;;;;20.92;7.22;;;;;;;-147.05;100.00;58721.66;5130286;27;20048;-70
2021/12/21 04:36:00;;;;;;;21.05;7.82;;;;;;;-147.05;100.00;58721.66;5130536;27;20040;-70
2021/12/21 04:38:31;;;;;;;20.67;7.78;;;;;;;-147.05;100.00;58721.66;5130492;27;20095;-71
2021/12/21 04:41:09;;;;;;;14.27;7.40;;;;;;;-147.05;100.00;58721.66;5134895;27;20043;-69
2021/12/21 04:43:35;;;;;;;21.88;8.18;;;;;;;-147.05;100.00;58721.66;5130854;27;20043;-71
2021/12/21 04:46:01;;;;;;;16.83;7.20;;;;;;;-2.60;100.00;58721.66;5131129;27;20040;-68
2021/12/21 04:48:27;;;;;;;20.50;8.07;;;;;;;-147.05;100.00;58721.66;5131498;27;20039;-71
2021/12/21 04:50:53;;;;;;;19.08;7.90;;;;;;;-147.05;100.00;58721.66;5128867;27;20521;-70
2021/12/21 04:53:19;;;;;;;18.45;7.22;;;;;;;-147.05;100.00;58721.66;5129325;27;20127;-68
2021/12/21 04:55:46;;;;;;;18.08;8.30;;;;;;;-147.05;100.00;58721.66;5131233;27;20513;-71
2021/12/21 04:58:11;;;;;;;14.50;7.03;;;;;;;-147.05;100.00;58721.66;5134627;27;20044;-69
2021/12/21 05:00:39;;;;;;;17.58;8.15;;;;;;;-147.05;100.00;58721.66;5137342;27;20036;-71
2021/12/21 05:03:06;;;;;;;17.60;8.45;;;;;;;-147.05;100.00;58721.66;5132960;27;20016;-70
2021/12/21 05:05:32;;;;;;;17.38;8.50;;;;;;;-147.05;100.00;58721.66;5136882;27;20082;-70
2021/12/21 05:08:40;;;;;;;22.65;10.23;;;;;;;-147.05;100.00;58721.66;5134293;27;20503;-71
2021/12/21 05:10:50;;;;;;;26.77;9.48;;;;;;;-147.05;100.00;58721.66;5101968;27;20056;-69
2021/12/21 05:13:19;;;;;;;19.38;8.45;;;;;;;-147.05;100.00;58721.66;5126302;27;20032;-68
2021/12/21 05:15:46;;;;;;;24.27;9.05;;;;;;;-147.05;100.00;58721.66;5131265;27;20046;-69
2021/12/21 05:18:15;;;;;;;22.35;8.23;;;;;;;-147.05;100.00;58721.66;5132235;27;20060;-68
2021/12/21 05:20:41;;;;;;;22.80;8.45;;;;;;;-147.05;100.00;58721.66;5131004;27;20119;-68
2021/12/21 05:23:08;;;;;;;25.05;8.57;;;;;;;-147.05;100.00;58721.66;5129046;27;20040;-68
2021/12/21 05:25:35;;;;;;;19.27;7.90;;;;;;;-147.05;100.00;58721.66;5135069;27;20036;-69
2021/12/21 05:28:01;;;;;;;15.98;6.97;;;;;;;-147.05;100.00;58721.66;5127924;27;20480;-68
2021/12/21 05:30:27;;;;;;;15.18;7.38;;;;;;;-147.05;100.00;58721.66;5126035;27;20032;-72
2021/12/21 05:32:56;;;;;;;18.45;6.70;;;;;;;-2.76;100.00;58721.66;5129856;27;20462;-74
2021/12/21 05:35:25;;;;;;;17.58;7.82;;;;;;;-147.05;100.00;58721.66;5112461;27;20524;-69
2021/12/21 05:37:55;;;;;;;15.10;7.47;;;;;;;-147.05;100.00;58721.66;5129110;27;20105;-70
2021/12/21 05:40:21;;;;;;;16.00;9.00;;;;;;;-147.05;100.00;58721.66;5130382;27;20449;-72
2021/12/21 05:42:48;;;;;;;17.40;7.78;;;;;;;-147.05;100.00;58721.66;5128936;27;20070;-74
2021/12/21 05:45:17;;;;;;;24.77;8.65;;;;;;;-147.05;100.00;58721.66;5129795;27;20387;-72
2021/12/21 05:47:44;;;;;;;19.35;8.85;;;;;;;-147.05;100.00;58721.66;5126246;27;20036;-69
2021/12/21 05:50:16;;;;;;;19.80;8.50;;;;;;;-147.05;100.00;58721.66;5126516;27;20542;-69
2021/12/21 05:52:44;;;;;;;20.13;8.45;;;;;;;-147.05;100.00;58721.66;5127394;27;20119;-67
2021/12/21 05:55:11;;;;;;;19.08;8.45;;;;;;;-2.85;100.00;58721.66;5130577;27;20488;-67
2021/12/21 05:57:36;;;;;;;16.15;7.75;;;;;;;-147.05;100.00;58721.66;5135423;27;20429;-70
2021/12/21 06:00:11;;;;;;;18.38;8.48;;;;;;;-147.05;100.00;58721.66;5133304;27;20044;-66
2021/12/21 06:02:37;;;;;;;19.73;9.07;;;;;;;-147.05;100.00;58721.66;5128644;27;20043;-70
2021/12/21 06:05:04;;;;;;;19.45;8.60;;;;;;;-147.05;100.00;58721.66;5135443;27;20511;-65
2021/12/21 06:07:32;;;;;;;21.35;9.23;;;;;;;-2.78;100.00;58721.66;5134428;27;20031;-66
2021/12/21 06:09:58;;;;;;;21.75;8.70;;;;;;;-147.05;100.00;58721.66;5130507;27;20048;-70
2021/12/21 06:26:00;;;;;;;14.75;8.32;;;;;;;-2.88;0.00;59714.78;4985544;28;20034;-66
2021/12/21 06:28:25;;;;;;;20.55;8.90;;;;;;;-147.05;0.00;59714.78;4985883;28;20056;-67
2021/12/21 06:30:51;;;;;;;25.98;9.57;;;;;;;-147.05;0.00;59714.78;4974829;28;20042;-67
2021/12/21 06:34:41;;;;;;;20.05;9.20;;;;;;;-147.05;0.00;59714.78;5090926;27;1207707;-70
2021/12/21 06:37:08;;;;;;;20.85;9.75;;;;;;;-147.05;0.00;59714.78;5110158;27;20043;-70
2021/12/21 06:39:33;;;;;;;19.67;9.60;;;;;;;-147.05;0.00;59714.78;5098336;27;20124;-68
2021/12/21 06:42:01;;;;;;;22.33;10.02;;;;;;;-147.05;0.00;59714.78;5084524;28;20481;-68
2021/12/21 06:44:27;;;;;;;16.52;9.20;;;;;;;-2.99;0.00;59714.78;5089776;28;20047;-67
2021/12/21 06:51:08;;;;;;;22.45;9.60;;;;;;;-147.05;0.00;59714.78;5081761;28;20391;-68
2021/12/21 06:52:36;;;;;;;19.98;9.82;;;;;;;-147.05;0.00;59714.78;5100157;28;20052;-71
2021/12/21 06:55:02;;;;;;;22.70;9.25;;;;;;;-147.05;0.00;59714.78;5082496;27;20634;-70
2021/12/21 06:57:27;;;;;;;19.35;9.48;;;;;;;-147.05;0.00;59714.78;5090919;28;20154;-67
2021/12/21 06:59:53;;;;;;;22.08;9.48;;;;;;;-147.05;0.00;59714.78;5080690;28;33858;-67
2021/12/21 07:02:19;;;;;;;24.90;9.90;;;;;;;-147.05;0.00;59714.78;5083433;28;20037;-70
2021/12/21 07:04:45;;;;;;;22.67;10.32;;;;;;;-147.05;0.00;59714.78;5083094;28;20037;-65
2021/12/21 07:07:11;;;;;;;23.33;10.20;;;;;;;-147.05;0.00;59714.78;5081542;28;20111;-66
2021/12/21 07:09:42;;;;;;;19.75;9.68;;;;;;;-147.05;0.00;59714.78;5079907;28;20107;-70
2021/12/21 07:20:21;;;;;;;25.45;11.38;;;;;;;-147.05;0.00;59714.78;5079382;28;20100;-67
2021/12/21 07:22:46;;;;;;;20.50;9.98;;;;;;;-147.05;0.00;59714.78;5078026;28;20037;-65
2021/12/21 07:25:12;;;;;;;25.58;10.45;;;;;;;-147.05;0.00;59714.78;5078125;28;43548;-66
2021/12/21 07:27:37;;;;;;;24.52;11.15;;;;;;;-147.05;0.00;59714.78;5087381;28;20476;-67
2021/12/21 07:30:05;;;;;;;22.70;9.85;;;;;;;-3.02;0.00;59714.78;5077054;28;26964;-66
2021/12/21 07:32:31;;;;;;;27.92;10.85;;;;;;;-147.05;0.00;59714.78;5089453;28;20048;-70
2021/12/21 07:34:58;;;;;;;21.55;10.25;;;;;;;-147.05;0.00;59714.78;5077679;28;20052;-66
2021/12/21 07:37:25;;;;;;;23.98;9.82;;;;;;;-147.05;0.00;59714.78;5078566;28;20029;-65
2021/12/21 07:39:51;;;;;;;26.55;9.98;;;;;;;-147.05;0.00;59714.78;5078954;28;20068;-67
2021/12/21 07:42:19;;;;;;;22.38;9.85;;;;;;;-147.05;0.00;59714.78;5078492;28;20133;-66
2021/12/21 07:44:46;;;;;;;24.65;10.27;;;;;;;191.58;0.00;59714.78;5064648;28;20037;-65
2021/12/21 07:47:12;;;;;;;24.20;9.52;;;;;;;-147.05;0.00;59714.78;5056917;28;20038;-66
2021/12/21 07:49:37;;;;;;;18.40;8.70;;;;;;;-3.08;0.00;59714.78;5064978;28;33475;-67
2021/12/21 07:52:07;;;;;;;17.38;9.98;;;;;;;-147.05;0.00;59714.78;5068838;28;20040;-67
2021/12/21 07:54:33;;;;;;;25.92;10.10;;;;;;;-147.05;0.00;59714.78;5069801;28;20106;-66
2021/12/21 07:56:59;;;;;;;23.52;10.00;;;;;;;-147.05;0.00;59714.78;5074105;28;20044;-66
2021/12/21 07:59:24;;;;;;;24.88;10.40;;;;;;;-147.05;0.00;59714.78;5061083;28;20094;-65
2021/12/21 08:01:50;;;;;;;26.15;9.88;;;;;;;-147.05;0.00;59714.78;5076878;28;20036;-67
2021/12/21 08:04:16;;;;;;;24.58;10.80;;;;;;;-147.05;0.00;59714.78;5057043;28;20049;-69
2021/12/21 08:06:45;;;;;;;22.92;9.85;;;;;;;-147.05;0.00;59714.78;5065774;28;20041;-65
2021/12/21 08:09:10;;;;;;;20.80;9.18;;;;;;;-147.05;0.00;59714.78;5064879;28;20040;-66
2021/12/21 08:14:04;;;;;;;22.70;10.43;;;;;;;-147.05;0.00;59714.78;5067930;28;20045;-66
2021/12/21 08:16:30;;;;;;;23.67;9.77;;;;;;;-147.05;0.00;59714.78;5068432;28;20037;-67
2021/12/21 08:18:56;;;;;;;21.63;9.98;;;;;;;-147.05;0.00;59714.78;5067072;28;20115;-68
2021/12/21 08:21:24;;;;;;;19.80;9.63;;;;;;;-147.05;0.00;59714.78;5068035;28;20048;-66
2021/12/21 08:23:50;;;;;;;19.63;9.35;;;;;;;-147.05;0.00;59714.78;5077076;28;20376;-66
2021/12/21 08:26:15;;;;;;;20.52;9.95;;;;;;;-147.05;0.00;59714.78;5071995;28;37853;-66
2021/12/21 08:28:41;;;;;;;20.35;10.35;;;;;;;-147.05;0.00;59714.78;5065342;28;20037;-67
2021/12/21 08:31:13;;;;;;;22.30;9.68;;;;;;;-147.05;0.00;59714.78;5065286;28;20091;-67
2021/12/21 08:33:41;;;;;;;19.23;10.07;;;;;;;-147.05;0.00;59714.78;5058757;28;20057;-66
2021/12/21 08:36:09;;;;;;;24.08;9.85;;;;;;;-147.05;0.00;59714.78;5075297;28;20071;-66
2021/12/21 08:38:41;;;;;;;18.80;9.65;;;;;;;-147.05;0.00;59714.78;5057925;28;20792;-67
2021/12/21 08:41:07;;;;;;;19.40;10.20;;;;;;;-147.05;0.00;59714.78;5070666;28;20084;-67
2021/12/21 08:43:35;;;;;;;25.65;12.60;;;;;;;-147.05;0.00;59714.78;5074053;28;20044;-69
2021/12/21 08:46:00;;;;;;;20.38;10.23;;;;;;;-147.05;0.00;59714.78;5056695;28;20077;-66
2021/12/21 08:48:27;;;;;;;24.50;10.15;;;;;;;-147.05;0.00;59714.78;5063609;28;20076;-69
2021/12/21 08:50:55;;;;;;;24.20;10.35;;;;;;;-147.05;0.00;59714.78;5068070;28;20040;-68
2021/12/21 08:53:22;;;;;;;21.55;10.70;;;;;;;-147.05;0.00;59714.78;5074979;28;20047;-69
2021/12/21 08:55:51;;;;;;;18.67;10.32;;;;;;;-1.87;nan;103640.16;5064952;28;20132;-68
2021/12/21 08:58:17;;;;;;;22.58;10.32;;;;;;;-1.74;nan;103653.66;5055962;28;20068;-66
2021/12/21 09:00:42;;;;;;;23.67;10.63;;;;;;;-1.66;nan;103654.91;5065005;28;20049;-66
2021/12/21 09:03:10;;;;;;;25.23;10.10;;;;;;;-1.60;nan;103647.50;5067814;28;20104;-68
2021/12/21 09:05:37;;;;;;;21.30;10.98;;;;;;;-1.52;nan;103653.00;5067361;28;20061;-68
2021/12/21 09:08:04;;;;;;;20.85;10.80;;;;;;;-1.42;nan;103644.06;5055280;28;20046;-68
2021/12/21 09:10:31;;;;;;;19.08;10.10;;;;;;;-1.32;nan;103647.97;5070751;28;20041;-69
2021/12/21 09:12:58;;;;;;;20.65;10.48;;;;;;;-1.25;nan;103648.31;5068488;28;20037;-66
2021/12/21 09:15:26;;;;;;;22.90;10.60;;;;;;;-1.16;nan;103650.47;5064068;28;20041;-69
2021/12/21 09:17:53;;;;;;;19.15;10.82;;;;;;;-1.07;nan;103649.13;5069626;28;20129;-69
2021/12/21 09:20:22;;;;;;;20.00;10.57;;;;;;;-0.99;nan;103651.25;5065663;28;20032;-69
2021/12/21 09:22:50;;;;;;;21.17;10.52;;;;;;;-0.91;nan;103651.59;5063597;28;20460;-70
2021/12/21 09:25:16;;;;;;;22.35;10.68;;;;;;;-0.83;nan;103657.09;5074929;28;20059;-70
2021/12/21 09:27:43;;;;;;;23.98;11.40;;;;;;;-0.76;nan;103651.41;5067281;28;20033;-70
2021/12/21 09:30:14;;;;;;;24.88;10.65;;;;;;;-0.66;nan;103648.44;5072078;28;20045;-69
2021/12/21 09:32:40;;;;;;;24.17;10.98;;;;;;;-0.58;nan;103645.34;5069323;28;20053;-69
2021/12/21 09:35:07;;;;;;;22.90;10.60;;;;;;;-0.52;nan;103648.19;5067476;28;20045;-69
2021/12/21 09:37:33;;;;;;;20.52;9.98;;;;;;;-0.43;nan;103652.88;5067270;28;20095;-71
2021/12/21 09:40:01;;;;;;;18.45;9.65;;;;;;;-0.35;nan;103654.09;5070405;28;20033;-70
2021/12/21 09:42:29;;;;;;;20.17;10.57;;;;;;;-0.28;nan;103653.56;5075671;28;20036;-71
2021/12/21 09:44:57;;;;;;;19.67;10.75;;;;;;;-0.19;nan;103650.50;5059991;28;20042;-69
2021/12/21 09:47:23;;;;;;;19.77;10.10;;;;;;;-0.11;nan;103645.69;5072199;28;20044;-67
2021/12/21 09:49:49;;;;;;;18.98;10.77;;;;;;;-0.03;nan;103642.59;5070121;28;20540;-69
2021/12/21 09:52:22;;;;;;;22.58;10.55;;;;;;;0.06;nan;103648.97;5073597;28;20041;-66
2021/12/21 09:54:51;;;;;;;22.65;10.52;;;;;;;0.12;nan;103638.94;5067904;28;20064;-70
2021/12/21 09:57:18;;;;;;;22.77;10.75;;;;;;;0.20;nan;103639.25;5065884;28;20033;-70
2021/12/21 09:59:46;;;;;;;21.40;10.73;;;;;;;0.23;nan;103637.69;5068195;28;20041;-68
2021/12/21 10:02:14;;;;;;;20.40;10.20;;;;;;;0.28;nan;103641.31;5058633;28;20118;-70
2021/12/21 10:04:47;;;;;;;20.85;10.60;;;;;;;0.35;nan;103641.59;5058677;28;20065;-69
2021/12/21 10:07:14;;;;;;;24.52;11.15;;;;;;;0.40;nan;103640.06;5045382;28;20522;-70
2021/12/21 10:09:43;;;;;;;20.52;10.82;;;;;;;0.47;nan;103634.31;5074856;28;20040;-70
2021/12/21 10:12:13;;;;;;;22.73;10.93;;;;;;;0.54;nan;103635.47;5075254;28;20128;-69
2021/12/21 10:14:40;;;;;;;20.45;11.85;;;;;;;0.60;nan;103628.00;5055514;28;20049;-70
2021/12/21 10:17:08;;;;;;;23.60;11.82;;;;;;;0.68;nan;103630.84;5063081;28;20088;-70
2021/12/21 10:19:37;;;;;;;30.38;12.30;;;;;;;0.74;nan;103628.53;5073996;28;20112;-70
2021/12/21 10:22:15;;;;;;;24.60;11.85;;;;;;;0.80;nan;103615.00;5075054;28;20052;-69
2021/12/21 10:24:51;;;;;;;30.27;12.40;;;;;;;0.85;nan;103613.44;5072709;28;20482;-70
2021/12/21 10:27:20;;;;;;;25.98;12.73;;;;;;;0.90;nan;103615.38;5070256;28;20051;-69
2021/12/21 10:29:54;;;;;;;25.13;13.23;;;;;;;0.99;nan;103606.22;5063726;28;20140;-70
2021/12/21 10:32:28;;;;;;;30.05;12.82;;;;;;;1.08;nan;103601.41;5062366;28;20396;-70
2021/12/21 10:35:10;;;;;;;30.23;13.05;;;;;;;1.13;nan;103610.22;5065337;28;20040;-70
2021/12/21 10:37:40;;;;;;;31.17;13.35;;;;;;;1.18;nan;103605.22;5073907;28;20463;-70
2021/12/21 10:40:24;;;;;;;27.63;13.88;;;;;;;1.24;nan;103602.88;5061094;28;20046;-66
2021/12/21 10:43:03;;;;;;;25.65;12.48;;;;;;;1.31;nan;103596.22;5070904;28;20045;-67
2021/12/21 10:45:38;;;;;;;23.50;12.77;;;;;;;1.37;nan;103597.34;5073779;28;20053;-67
2021/12/21 10:48:16;;;;;;;31.35;13.93;;;;;;;1.44;nan;103601.03;5075681;28;20091;-66
2021/12/21 10:50:48;;;;;;;28.08;13.00;;;;;;;1.47;nan;103601.16;5072602;28;20049;-69
2021/12/21 10:53:24;;;;;;;23.63;13.43;;;;;;;1.52;nan;103598.72;5063924;28;20414;-66
2021/12/21 10:56:08;;;;;;;27.73;13.65;;;;;;;1.58;nan;103601.50;5068652;28;20130;-65
2021/12/21 10:58:41;;;;;;;25.27;12.87;;;;;;;1.64;nan;103606.88;5060192;28;20049;-66
2021/12/21 11:01:12;;;;;;;24.45;12.30;;;;;;;1.69;nan;103600.19;5061713;28;20055;-70
2021/12/21 11:03:53;;;;;;;25.00;12.60;;;;;;;1.76;nan;103609.03;5061132;28;20068;-65
2021/12/21 11:06:23;;;;;;;26.40;14.15;;;;;;;1.85;nan;103606.78;5065724;28;22457;-65
2021/12/21 11:08:53;;;;;;;25.02;12.73;;;;;;;1.91;nan;103600.94;5063933;28;20479;-70
2021/12/21 11:11:28;;;;;;;24.30;12.40;;;;;;;2.00;nan;103593.50;5067948;28;20029;-64
2021/12/21 11:14:10;;;;;;;24.23;11.95;;;;;;;2.10;nan;103598.97;5069284;28;20049;-67
2021/12/21 11:16:43;;;;;;;22.80;11.23;;;;;;;2.11;nan;103587.78;5065261;28;20939;-66
2021/12/21 11:19:12;;;;;;;19.20;10.23;;;;;;;2.14;nan;103583.59;5061838;28;20125;-70
2021/12/21 11:21:39;;;;;;;26.08;11.50;;;;;;;2.19;nan;103575.13;5070287;28;20041;-69
2021/12/21 11:24:17;;;;;;;24.30;11.30;;;;;;;2.26;nan;103577.94;5065498;28;20045;-66
2021/12/21 11:26:46;;;;;;;19.33;10.95;;;;;;;2.28;nan;103562.50;5077866;28;20037;-66
2021/12/21 11:29:18;;;;;;;25.77;11.23;;;;;;;2.30;nan;103551.34;5066439;28;20037;-67
2021/12/21 11:31:49;;;;;;;28.00;12.65;;;;;;;2.33;nan;103559.22;5067739;28;20091;-68
2021/12/21 11:34:21;;;;;;;20.58;11.23;;;;;;;2.41;nan;103549.09;5070334;28;20137;-67
2021/12/21 11:39:38;;;;;;;24.27;12.10;;;;;;;2.60;nan;103547.97;5064000;28;20045;-68
2021/12/21 11:42:08;;;;;;;25.98;11.77;;;;;;;2.68;nan;103540.44;5071255;28;20056;-69
2021/12/21 11:44:58;;;;;;;24.80;11.23;;;;;;;2.77;nan;103537.22;5069224;28;20464;-67
2021/12/21 11:47:55;;;;;;;21.58;11.50;;;;;;;2.87;nan;103540.97;5073710;28;20037;-67
2021/12/21 11:50:21;;;;;;;22.48;10.38;;;;;;;2.97;nan;103539.50;5068449;28;20052;-67
2021/12/21 11:52:51;;;;;;;17.48;10.02;;;;;;;3.04;nan;103541.47;5066813;28;20085;-68
2021/12/21 11:55:21;;;;;;;22.05;11.00;;;;;;;3.10;nan;103542.50;5073080;28;20045;-67
2021/12/21 11:57:53;;;;;;;24.48;10.77;;;;;;;3.17;nan;103538.38;5071561;28;20053;-69
2021/12/21 12:00:24;;;;;;;21.40;10.93;;;;;;;3.20;nan;103542.78;5064992;28;20041;-67
2021/12/21 12:02:52;;;;;;;21.73;10.45;;;;;;;3.22;nan;103541.97;5079881;28;20045;-65
2021/12/21 12:05:27;;;;;;;26.20;10.35;;;;;;;3.22;nan;103539.38;5074073;28;20040;-65
2021/12/21 12:08:13;;;;;;;17.27;9.52;;;;;;;3.24;nan;103531.66;5069177;28;20052;-66
2021/12/21 12:10:50;;;;;;;16.52;9.90;;;;;;;3.25;nan;103530.81;5070185;28;20416;-65
2021/12/21 12:13:34;;;;;;;16.60;9.10;;;;;;;3.25;nan;103530.81;5066878;28;20056;-69
2021/12/21 12:16:06;;;;;;;18.97;9.80;;;;;;;3.21;nan;103522.09;5077157;28;20472;-65
2021/12/21 12:18:39;;;;;;;20.10;9.30;;;;;;;3.20;nan;103520.31;5065955;28;20087;-66
2021/12/21 12:21:23;;;;;;;21.23;9.57;;;;;;;3.21;nan;103518.59;5070038;28;20045;-66
2021/12/21 12:23:55;;;;;;;20.33;9.60;;;;;;;3.20;nan;103512.56;5061926;28;20029;-66
2021/12/21 12:26:30;;;;;;;14.05;8.82;;;;;;;3.20;nan;103517.72;5074275;28;20103;-66
2021/12/21 12:29:13;;;;;;;17.58;8.65;;;;;;;3.21;nan;103516.91;5070156;28;20034;-65
2021/12/21 12:31:45;;;;;;;19.95;9.07;;;;;;;3.21;nan;103514.31;5067217;28;20483;-65
2021/12/21 12:34:24;;;;;;;20.05;8.27;;;;;;;3.21;nan;103513.41;5064461;28;20096;-65